sensor_id;sensor_type;location;lat;lon;timestamp;pressure;altitude;pressure_sealevel;temperature;humidity
35676;BME280;21790;42.668;23.298;2022-07-10T00:00:25;94617.38;;;22.20;53.78
35676;BME280;21790;42.668;23.298;2022-07-10T00:02:51;94612.69;;;22.09;53.87
35676;BME280;21790;42.668;23.298;2022-07-10T00:05:18;94617.25;;;22.26;52.98
35676;BME280;21790;42.668;23.298;2022-07-10T00:07:44;94614.25;;;22.24;53.30
35676;BME280;21790;42.668;23.298;2022-07-10T00:10:10;94603.63;;;22.17;53.50
35676;BME280;21790;42.668;23.298;2022-07-10T00:12:36;94605.03;;;22.23;53.09
35676;BME280;21790;42.668;23.298;2022-07-10T00:15:03;94612.84;;;22.30;52.77
35676;BME280;21790;42.668;23.298;2022-07-10T00:17:30;94611.84;;;22.15;53.47
35676;BME280;21790;42.668;23.298;2022-07-10T00:19:55;94613.78;;;22.06;53.17
35676;BME280;21790;42.668;23.298;2022-07-10T00:22:21;94615.75;;;22.11;53.25
35676;BME280;21790;42.668;23.298;2022-07-10T00:24:46;94604.44;;;21.98;54.04
35676;BME280;21790;42.668;23.298;2022-07-10T00:27:11;94604.16;;;22.02;53.68
35676;BME280;21790;42.668;23.298;2022-07-10T00:29:37;94611.41;;;22.10;53.60
35676;BME280;21790;42.668;23.298;2022-07-10T00:32:04;94601.63;;;21.98;53.69
35676;BME280;21790;42.668;23.298;2022-07-10T00:34:29;94592.31;;;21.90;53.92
35676;BME280;21790;42.668;23.298;2022-07-10T00:36:55;94605.97;;;21.99;54.07
35676;BME280;21790;42.668;23.298;2022-07-10T00:39:20;94592.66;;;22.00;53.60
35676;BME280;21790;42.668;23.298;2022-07-10T00:41:46;94600.56;;;22.01;53.51
35676;BME280;21790;42.668;23.298;2022-07-10T00:44:11;94587.16;;;22.21;52.93
35676;BME280;21790;42.668;23.298;2022-07-10T00:46:37;94598.00;;;22.17;52.85
35676;BME280;21790;42.668;23.298;2022-07-10T00:49:02;94596.66;;;22.04;53.32
35676;BME280;21790;42.668;23.298;2022-07-10T00:51:29;94592.78;;;22.07;53.87
35676;BME280;21790;42.668;23.298;2022-07-10T00:53:56;94588.03;;;22.16;53.40
35676;BME280;21790;42.668;23.298;2022-07-10T00:56:26;94591.94;;;22.13;53.61
35676;BME280;21790;42.668;23.298;2022-07-10T00:58:52;94594.72;;;21.99;53.72
35676;BME280;21790;42.668;23.298;2022-07-10T01:01:18;94592.63;;;21.87;54.46
35676;BME280;21790;42.668;23.298;2022-07-10T01:03:45;94584.75;;;21.98;53.95
35676;BME280;21790;42.668;23.298;2022-07-10T01:06:11;94582.16;;;22.00;54.07
35676;BME280;21790;42.668;23.298;2022-07-10T01:08:37;94587.56;;;21.98;53.86
35676;BME280;21790;42.668;23.298;2022-07-10T01:11:03;94583.78;;;21.96;53.88
35676;BME280;21790;42.668;23.298;2022-07-10T01:13:28;94579.13;;;21.98;53.64
35676;BME280;21790;42.668;23.298;2022-07-10T01:15:55;94582.84;;;22.06;53.43
35676;BME280;21790;42.668;23.298;2022-07-10T01:18:20;94584.66;;;22.04;53.69
35676;BME280;21790;42.668;23.298;2022-07-10T01:20:50;94571.63;;;21.88;53.94
35676;BME280;21790;42.668;23.298;2022-07-10T01:23:16;94583.19;;;21.84;53.90
35676;BME280;21790;42.668;23.298;2022-07-10T01:25:41;94578.34;;;21.85;53.99
35676;BME280;21790;42.668;23.298;2022-07-10T01:28:06;94569.38;;;21.86;54.19
35676;BME280;21790;42.668;23.298;2022-07-10T01:30:32;94571.94;;;21.84;54.21
35676;BME280;21790;42.668;23.298;2022-07-10T01:32:58;94573.03;;;21.81;54.20
35676;BME280;21790;42.668;23.298;2022-07-10T01:35:23;94563.09;;;21.93;53.84
35676;BME280;21790;42.668;23.298;2022-07-10T01:37:49;94553.91;;;21.93;53.71
35676;BME280;21790;42.668;23.298;2022-07-10T01:40:14;94553.28;;;22.00;53.87
35676;BME280;21790;42.668;23.298;2022-07-10T01:42:40;94549.16;;;22.01;53.43
35676;BME280;21790;42.668;23.298;2022-07-10T01:45:09;94544.06;;;21.99;53.86
35676;BME280;21790;42.668;23.298;2022-07-10T01:47:35;94555.31;;;21.99;53.54
35676;BME280;21790;42.668;23.298;2022-07-10T01:50:00;94553.41;;;22.07;53.28
35676;BME280;21790;42.668;23.298;2022-07-10T01:52:26;94545.38;;;21.98;54.03
35676;BME280;21790;42.668;23.298;2022-07-10T01:54:52;94555.31;;;21.99;53.90
35676;BME280;21790;42.668;23.298;2022-07-10T01:57:18;94543.44;;;22.06;53.73
35676;BME280;21790;42.668;23.298;2022-07-10T01:59:44;94554.25;;;22.02;53.40
35676;BME280;21790;42.668;23.298;2022-07-10T02:02:09;94551.75;;;21.99;53.14
35676;BME280;21790;42.668;23.298;2022-07-10T02:04:35;94547.44;;;21.98;53.04
35676;BME280;21790;42.668;23.298;2022-07-10T02:07:08;94549.94;;;22.01;53.21
35676;BME280;21790;42.668;23.298;2022-07-10T02:09:34;94540.28;;;21.97;53.48
35676;BME280;21790;42.668;23.298;2022-07-10T02:11:59;94542.56;;;21.98;53.84
35676;BME280;21790;42.668;23.298;2022-07-10T02:14:25;94542.25;;;22.02;53.35
35676;BME280;21790;42.668;23.298;2022-07-10T02:16:50;94534.31;;;21.87;53.90
35676;BME280;21790;42.668;23.298;2022-07-10T02:19:16;94551.41;;;21.89;53.35
35676;BME280;21790;42.668;23.298;2022-07-10T02:21:41;94533.75;;;21.89;53.43
35676;BME280;21790;42.668;23.298;2022-07-10T02:24:07;94550.22;;;21.85;53.84
35676;BME280;21790;42.668;23.298;2022-07-10T02:26:32;94542.13;;;21.94;53.64
35676;BME280;21790;42.668;23.298;2022-07-10T02:28:58;94537.22;;;21.82;53.84
35676;BME280;21790;42.668;23.298;2022-07-10T02:31:23;94540.25;;;21.84;53.73
35676;BME280;21790;42.668;23.298;2022-07-10T02:33:48;94535.28;;;21.90;53.56
35676;BME280;21790;42.668;23.298;2022-07-10T02:36:14;94537.03;;;21.93;53.30
35676;BME280;21790;42.668;23.298;2022-07-10T02:38:39;94536.38;;;21.87;53.11
35676;BME280;21790;42.668;23.298;2022-07-10T02:41:05;94544.25;;;21.75;53.62
35676;BME280;21790;42.668;23.298;2022-07-10T02:43:30;94537.13;;;21.87;53.02
35676;BME280;21790;42.668;23.298;2022-07-10T02:45:56;94536.66;;;21.83;53.49
35676;BME280;21790;42.668;23.298;2022-07-10T02:48:21;94549.13;;;21.88;53.28
35676;BME280;21790;42.668;23.298;2022-07-10T02:50:47;94556.72;;;21.93;53.01
35676;BME280;21790;42.668;23.298;2022-07-10T02:53:12;94547.75;;;21.94;53.17
35676;BME280;21790;42.668;23.298;2022-07-10T02:55:37;94553.28;;;22.00;53.13
35676;BME280;21790;42.668;23.298;2022-07-10T02:58:03;94555.13;;;22.10;52.65
35676;BME280;21790;42.668;23.298;2022-07-10T03:00:29;94563.56;;;21.97;53.04
35676;BME280;21790;42.668;23.298;2022-07-10T03:02:55;94560.81;;;21.92;52.95
35676;BME280;21790;42.668;23.298;2022-07-10T03:05:21;94559.63;;;21.87;53.14
35676;BME280;21790;42.668;23.298;2022-07-10T03:07:47;94566.75;;;21.88;53.23
35676;BME280;21790;42.668;23.298;2022-07-10T03:10:12;94565.25;;;21.87;53.43
35676;BME280;21790;42.668;23.298;2022-07-10T03:12:38;94570.88;;;21.87;53.57
35676;BME280;21790;42.668;23.298;2022-07-10T03:15:05;94568.59;;;21.86;53.39
35676;BME280;21790;42.668;23.298;2022-07-10T03:17:31;94563.09;;;21.93;53.06
35676;BME280;21790;42.668;23.298;2022-07-10T03:19:57;94573.84;;;21.95;53.20
35676;BME280;21790;42.668;23.298;2022-07-10T03:22:22;94578.19;;;22.22;52.38
35676;BME280;21790;42.668;23.298;2022-07-10T03:24:48;94588.88;;;22.10;52.68
35676;BME280;21790;42.668;23.298;2022-07-10T03:27:14;94573.72;;;22.00;52.48
35676;BME280;21790;42.668;23.298;2022-07-10T03:29:39;94566.59;;;21.99;53.02
35676;BME280;21790;42.668;23.298;2022-07-10T03:32:06;94570.91;;;22.00;52.92
35676;BME280;21790;42.668;23.298;2022-07-10T03:34:31;94576.31;;;21.98;53.30
35676;BME280;21790;42.668;23.298;2022-07-10T03:36:59;94572.00;;;22.10;52.94
35676;BME280;21790;42.668;23.298;2022-07-10T03:39:26;94584.22;;;22.00;53.16
35676;BME280;21790;42.668;23.298;2022-07-10T03:41:51;94570.38;;;22.02;53.11
35676;BME280;21790;42.668;23.298;2022-07-10T03:44:17;94561.84;;;22.07;53.04
35676;BME280;21790;42.668;23.298;2022-07-10T03:46:42;94568.75;;;22.06;53.23
35676;BME280;21790;42.668;23.298;2022-07-10T03:49:08;94562.69;;;22.16;52.61
35676;BME280;21790;42.668;23.298;2022-07-10T03:51:33;94560.44;;;22.14;52.72
35676;BME280;21790;42.668;23.298;2022-07-10T03:54:00;94564.31;;;22.11;52.80
35676;BME280;21790;42.668;23.298;2022-07-10T03:56:26;94568.13;;;22.14;52.68
35676;BME280;21790;42.668;23.298;2022-07-10T03:59:24;94557.94;;;22.10;53.24
35676;BME280;21790;42.668;23.298;2022-07-10T04:01:49;94557.50;;;22.20;52.71
35676;BME280;21790;42.668;23.298;2022-07-10T04:04:15;94554.47;;;22.18;52.89
35676;BME280;21790;42.668;23.298;2022-07-10T04:06:40;94553.50;;;22.28;52.73
35676;BME280;21790;42.668;23.298;2022-07-10T04:09:06;94561.59;;;22.32;52.60
35676;BME280;21790;42.668;23.298;2022-07-10T04:11:31;94557.59;;;22.40;52.12
35676;BME280;21790;42.668;23.298;2022-07-10T04:13:57;94550.56;;;22.47;51.67
35676;BME280;21790;42.668;23.298;2022-07-10T04:16:22;94553.81;;;22.51;51.85
35676;BME280;21790;42.668;23.298;2022-07-10T04:18:48;94534.50;;;22.55;52.00
35676;BME280;21790;42.668;23.298;2022-07-10T04:21:14;94546.22;;;22.72;51.67
35676;BME280;21790;42.668;23.298;2022-07-10T04:23:40;94538.41;;;22.78;51.55
35676;BME280;21790;42.668;23.298;2022-07-10T04:26:05;94531.00;;;22.88;51.37
35676;BME280;21790;42.668;23.298;2022-07-10T04:28:31;94540.72;;;23.01;51.36
35676;BME280;21790;42.668;23.298;2022-07-10T04:30:56;94534.19;;;23.06;50.99
35676;BME280;21790;42.668;23.298;2022-07-10T04:33:22;94540.81;;;23.29;50.56
35676;BME280;21790;42.668;23.298;2022-07-10T04:35:47;94543.16;;;23.38;50.26
35676;BME280;21790;42.668;23.298;2022-07-10T04:38:13;94535.59;;;23.33;50.45
35676;BME280;21790;42.668;23.298;2022-07-10T04:40:38;94535.38;;;23.52;49.89
35676;BME280;21790;42.668;23.298;2022-07-10T04:43:04;94540.34;;;23.59;49.89
35676;BME280;21790;42.668;23.298;2022-07-10T04:45:29;94540.91;;;23.78;49.48
35676;BME280;21790;42.668;23.298;2022-07-10T04:47:55;94538.00;;;23.70;49.29
35676;BME280;21790;42.668;23.298;2022-07-10T04:50:20;94544.66;;;23.39;49.56
35676;BME280;21790;42.668;23.298;2022-07-10T04:52:46;94542.34;;;23.71;49.07
35676;BME280;21790;42.668;23.298;2022-07-10T04:55:11;94540.53;;;23.82;49.17
35676;BME280;21790;42.668;23.298;2022-07-10T04:57:37;94540.03;;;23.91;48.79
35676;BME280;21790;42.668;23.298;2022-07-10T05:00:04;94545.63;;;24.11;48.36
35676;BME280;21790;42.668;23.298;2022-07-10T05:02:30;94548.03;;;24.00;48.47
35676;BME280;21790;42.668;23.298;2022-07-10T05:04:55;94542.66;;;24.17;47.91
35676;BME280;21790;42.668;23.298;2022-07-10T05:07:21;94537.69;;;24.31;47.66
35676;BME280;21790;42.668;23.298;2022-07-10T05:09:46;94543.19;;;24.36;47.71
35676;BME280;21790;42.668;23.298;2022-07-10T05:12:12;94536.78;;;24.36;47.78
35676;BME280;21790;42.668;23.298;2022-07-10T05:14:37;94548.13;;;24.43;47.54
35676;BME280;21790;42.668;23.298;2022-07-10T05:17:03;94548.97;;;24.59;47.10
35676;BME280;21790;42.668;23.298;2022-07-10T05:19:28;94531.25;;;24.58;47.10
35676;BME280;21790;42.668;23.298;2022-07-10T05:21:54;94530.56;;;24.73;46.90
35676;BME280;21790;42.668;23.298;2022-07-10T05:24:20;94532.03;;;24.67;47.18
35676;BME280;21790;42.668;23.298;2022-07-10T05:26:46;94534.88;;;24.74;47.31
35676;BME280;21790;42.668;23.298;2022-07-10T05:29:11;94541.16;;;24.88;46.80
35676;BME280;21790;42.668;23.298;2022-07-10T05:31:36;94539.53;;;24.92;46.49
35676;BME280;21790;42.668;23.298;2022-07-10T05:34:02;94540.44;;;24.95;46.26
35676;BME280;21790;42.668;23.298;2022-07-10T05:36:27;94540.13;;;25.06;46.14
35676;BME280;21790;42.668;23.298;2022-07-10T05:38:53;94541.06;;;25.16;45.99
35676;BME280;21790;42.668;23.298;2022-07-10T05:41:18;94542.59;;;25.17;45.91
35676;BME280;21790;42.668;23.298;2022-07-10T05:43:44;94535.63;;;25.18;45.77
35676;BME280;21790;42.668;23.298;2022-07-10T05:46:09;94535.06;;;25.27;45.60
35676;BME280;21790;42.668;23.298;2022-07-10T05:48:34;94529.78;;;25.31;45.58
35676;BME280;21790;42.668;23.298;2022-07-10T05:51:00;94539.81;;;25.40;45.30
35676;BME280;21790;42.668;23.298;2022-07-10T05:53:25;94538.13;;;25.45;45.11
35676;BME280;21790;42.668;23.298;2022-07-10T05:55:51;94534.91;;;25.48;45.34
35676;BME280;21790;42.668;23.298;2022-07-10T05:58:16;94531.13;;;25.30;45.58
35676;BME280;21790;42.668;23.298;2022-07-10T06:00:42;94539.03;;;25.32;45.94
35676;BME280;21790;42.668;23.298;2022-07-10T06:03:11;94534.72;;;25.38;45.59
35676;BME280;21790;42.668;23.298;2022-07-10T06:05:37;94533.41;;;25.55;44.97
35676;BME280;21790;42.668;23.298;2022-07-10T06:08:03;94529.47;;;25.65;45.03
35676;BME280;21790;42.668;23.298;2022-07-10T06:10:29;94528.53;;;25.78;44.74
35676;BME280;21790;42.668;23.298;2022-07-10T06:12:54;94537.22;;;25.65;44.51
35676;BME280;21790;42.668;23.298;2022-07-10T06:15:20;94533.25;;;25.75;44.20
35676;BME280;21790;42.668;23.298;2022-07-10T06:17:45;94528.19;;;25.74;44.75
35676;BME280;21790;42.668;23.298;2022-07-10T06:20:11;94532.31;;;25.73;44.57
35676;BME280;21790;42.668;23.298;2022-07-10T06:22:37;94527.03;;;25.85;44.31
35676;BME280;21790;42.668;23.298;2022-07-10T06:25:04;94524.75;;;25.98;43.80
35676;BME280;21790;42.668;23.298;2022-07-10T06:27:31;94519.81;;;26.14;44.00
35676;BME280;21790;42.668;23.298;2022-07-10T06:29:57;94525.88;;;26.33;43.15
35676;BME280;21790;42.668;23.298;2022-07-10T06:32:23;94519.75;;;26.52;42.74
35676;BME280;21790;42.668;23.298;2022-07-10T06:34:50;94530.72;;;26.48;43.18
35676;BME280;21790;42.668;23.298;2022-07-10T06:37:15;94515.75;;;26.62;42.84
35676;BME280;21790;42.668;23.298;2022-07-10T06:39:41;94526.50;;;26.72;42.88
35676;BME280;21790;42.668;23.298;2022-07-10T06:42:07;94524.38;;;26.87;42.53
35676;BME280;21790;42.668;23.298;2022-07-10T06:44:33;94534.75;;;26.92;42.60
35676;BME280;21790;42.668;23.298;2022-07-10T06:46:59;94517.56;;;26.90;41.67
35676;BME280;21790;42.668;23.298;2022-07-10T06:49:45;94520.84;;;26.64;40.80
35676;BME280;21790;42.668;23.298;2022-07-10T06:52:11;94520.69;;;26.62;41.98
35676;BME280;21790;42.668;23.298;2022-07-10T06:54:38;94517.06;;;26.69;41.15
35676;BME280;21790;42.668;23.298;2022-07-10T06:57:04;94517.78;;;26.77;41.50
35676;BME280;21790;42.668;23.298;2022-07-10T06:59:30;94521.16;;;26.83;41.56
35676;BME280;21790;42.668;23.298;2022-07-10T07:01:56;94515.66;;;26.93;41.77
35676;BME280;21790;42.668;23.298;2022-07-10T07:04:21;94508.00;;;27.11;41.50
35676;BME280;21790;42.668;23.298;2022-07-10T07:06:46;94519.06;;;27.24;40.92
35676;BME280;21790;42.668;23.298;2022-07-10T07:09:12;94509.16;;;27.08;41.05
35676;BME280;21790;42.668;23.298;2022-07-10T07:11:37;94508.00;;;27.11;40.89
35676;BME280;21790;42.668;23.298;2022-07-10T07:14:03;94510.84;;;27.11;41.09
35676;BME280;21790;42.668;23.298;2022-07-10T07:16:28;94513.63;;;27.18;41.27
35676;BME280;21790;42.668;23.298;2022-07-10T07:19:05;94506.66;;;27.12;41.35
35676;BME280;21790;42.668;23.298;2022-07-10T07:21:31;94510.41;;;27.22;41.26
35676;BME280;21790;42.668;23.298;2022-07-10T07:24:15;94519.88;;;27.17;41.67
35676;BME280;21790;42.668;23.298;2022-07-10T07:26:44;94509.66;;;27.21;41.62
35676;BME280;21790;42.668;23.298;2022-07-10T07:29:12;94509.25;;;27.25;41.27
35676;BME280;21790;42.668;23.298;2022-07-10T07:31:38;94496.00;;;27.27;40.85
35676;BME280;21790;42.668;23.298;2022-07-10T07:34:03;94509.25;;;27.49;40.76
35676;BME280;21790;42.668;23.298;2022-07-10T07:36:28;94500.69;;;27.65;40.78
35676;BME280;21790;42.668;23.298;2022-07-10T07:38:55;94501.88;;;27.79;40.08
35676;BME280;21790;42.668;23.298;2022-07-10T07:41:21;94499.72;;;27.87;39.62
35676;BME280;21790;42.668;23.298;2022-07-10T07:43:48;94505.75;;;27.91;39.28
35676;BME280;21790;42.668;23.298;2022-07-10T07:46:13;94500.97;;;27.94;39.89
35676;BME280;21790;42.668;23.298;2022-07-10T07:48:39;94500.34;;;28.03;39.36
35676;BME280;21790;42.668;23.298;2022-07-10T07:51:04;94498.13;;;28.18;38.59
35676;BME280;21790;42.668;23.298;2022-07-10T07:53:30;94499.06;;;28.38;38.38
35676;BME280;21790;42.668;23.298;2022-07-10T07:55:55;94500.38;;;28.54;38.18
35676;BME280;21790;42.668;23.298;2022-07-10T07:58:21;94503.72;;;28.60;38.18
35676;BME280;21790;42.668;23.298;2022-07-10T08:00:46;94491.53;;;28.67;37.86
35676;BME280;21790;42.668;23.298;2022-07-10T08:03:12;94498.81;;;28.78;37.76
35676;BME280;21790;42.668;23.298;2022-07-10T08:05:37;94490.34;;;28.88;38.34
35676;BME280;21790;42.668;23.298;2022-07-10T08:08:03;94495.53;;;28.82;37.29
35676;BME280;21790;42.668;23.298;2022-07-10T08:10:34;94485.09;;;28.84;37.45
35676;BME280;21790;42.668;23.298;2022-07-10T08:13:01;94487.34;;;28.86;37.35
35676;BME280;21790;42.668;23.298;2022-07-10T08:15:26;94489.34;;;28.93;37.03
35676;BME280;21790;42.668;23.298;2022-07-10T08:17:55;94491.94;;;28.81;36.96
35676;BME280;21790;42.668;23.298;2022-07-10T08:20:21;94488.03;;;28.77;37.14
35676;BME280;21790;42.668;23.298;2022-07-10T08:22:47;94484.28;;;28.74;37.17
35676;BME280;21790;42.668;23.298;2022-07-10T08:25:14;94490.56;;;28.99;37.17
35676;BME280;21790;42.668;23.298;2022-07-10T08:27:40;94491.66;;;29.04;36.76
35676;BME280;21790;42.668;23.298;2022-07-10T08:30:07;94497.50;;;29.06;36.22
35676;BME280;21790;42.668;23.298;2022-07-10T08:32:34;94492.09;;;29.00;36.15
35676;BME280;21790;42.668;23.298;2022-07-10T08:35:00;94491.66;;;29.04;36.59
35676;BME280;21790;42.668;23.298;2022-07-10T08:37:25;94502.69;;;29.17;36.60
35676;BME280;21790;42.668;23.298;2022-07-10T08:39:51;94488.28;;;29.15;35.79
35676;BME280;21790;42.668;23.298;2022-07-10T08:42:17;94489.03;;;29.16;34.87
35676;BME280;21790;42.668;23.298;2022-07-10T08:44:44;94492.84;;;29.01;35.07
35676;BME280;21790;42.668;23.298;2022-07-10T08:47:10;94492.44;;;28.87;35.14
35676;BME280;21790;42.668;23.298;2022-07-10T08:49:46;94495.72;;;28.84;34.56
35676;BME280;21790;42.668;23.298;2022-07-10T08:52:25;94493.44;;;28.99;34.93
35676;BME280;21790;42.668;23.298;2022-07-10T08:54:52;94488.34;;;28.81;35.21
35676;BME280;21790;42.668;23.298;2022-07-10T08:57:19;94488.94;;;28.96;34.98
35676;BME280;21790;42.668;23.298;2022-07-10T08:59:45;94484.88;;;28.99;34.51
35676;BME280;21790;42.668;23.298;2022-07-10T09:02:11;94491.34;;;29.00;35.37
35676;BME280;21790;42.668;23.298;2022-07-10T09:04:36;94484.97;;;28.92;35.54
35676;BME280;21790;42.668;23.298;2022-07-10T09:07:02;94473.06;;;29.03;35.32
35676;BME280;21790;42.668;23.298;2022-07-10T09:09:30;94490.81;;;29.11;34.88
35676;BME280;21790;42.668;23.298;2022-07-10T09:11:57;94486.19;;;29.16;34.53
35676;BME280;21790;42.668;23.298;2022-07-10T09:14:25;94471.72;;;29.04;35.04
35676;BME280;21790;42.668;23.298;2022-07-10T09:16:53;94474.09;;;28.98;35.32
35676;BME280;21790;42.668;23.298;2022-07-10T09:19:26;94476.56;;;28.84;36.21
35676;BME280;21790;42.668;23.298;2022-07-10T09:22:05;94477.63;;;28.71;36.07
35676;BME280;21790;42.668;23.298;2022-07-10T09:24:42;94473.47;;;28.90;36.02
35676;BME280;21790;42.668;23.298;2022-07-10T09:27:09;94475.59;;;28.99;36.47
35676;BME280;21790;42.668;23.298;2022-07-10T09:29:48;94463.50;;;29.08;35.48
35676;BME280;21790;42.668;23.298;2022-07-10T09:32:17;94464.94;;;28.73;34.83
35676;BME280;21790;42.668;23.298;2022-07-10T09:34:47;94465.69;;;28.90;35.71
35676;BME280;21790;42.668;23.298;2022-07-10T09:37:29;94468.53;;;29.17;36.11
35676;BME280;21790;42.668;23.298;2022-07-10T09:42:35;94471.09;;;29.23;35.23
35676;BME280;21790;42.668;23.298;2022-07-10T09:52:58;94461.81;;;29.49;34.89
35676;BME280;21790;42.668;23.298;2022-07-10T09:55:26;94448.94;;;28.94;34.50
35676;BME280;21790;42.668;23.298;2022-07-10T09:57:59;94445.75;;;28.90;35.25
35676;BME280;21790;42.668;23.298;2022-07-10T10:00:29;94455.41;;;29.31;35.41
35676;BME280;21790;42.668;23.298;2022-07-10T10:02:59;94454.78;;;29.50;35.98
35676;BME280;21790;42.668;23.298;2022-07-10T10:08:05;94449.31;;;29.71;34.15
35676;BME280;21790;42.668;23.298;2022-07-10T10:10:35;94449.00;;;29.67;33.70
35676;BME280;21790;42.668;23.298;2022-07-10T10:13:03;94456.63;;;29.74;34.43
35676;BME280;21790;42.668;23.298;2022-07-10T10:15:35;94448.41;;;29.32;33.01
35676;BME280;21790;42.668;23.298;2022-07-10T10:18:01;94450.63;;;29.61;34.85
35676;BME280;21790;42.668;23.298;2022-07-10T10:20:28;94449.16;;;29.79;34.21
35676;BME280;21790;42.668;23.298;2022-07-10T10:23:09;94449.06;;;29.96;34.50
35676;BME280;21790;42.668;23.298;2022-07-10T10:25:36;94449.78;;;29.87;34.12
35676;BME280;21790;42.668;23.298;2022-07-10T10:28:08;94451.72;;;29.84;34.16
35676;BME280;21790;42.668;23.298;2022-07-10T10:30:36;94450.88;;;29.91;33.93
35676;BME280;21790;42.668;23.298;2022-07-10T10:33:02;94443.41;;;29.60;34.37
35676;BME280;21790;42.668;23.298;2022-07-10T10:35:45;94437.00;;;29.69;34.51
35676;BME280;21790;42.668;23.298;2022-07-10T10:38:14;94435.25;;;29.46;34.97
35676;BME280;21790;42.668;23.298;2022-07-10T10:40:40;94438.84;;;29.37;34.27
35676;BME280;21790;42.668;23.298;2022-07-10T10:43:22;94435.69;;;29.33;34.13
35676;BME280;21790;42.668;23.298;2022-07-10T10:45:48;94442.19;;;29.26;34.75
35676;BME280;21790;42.668;23.298;2022-07-10T10:48:15;94447.84;;;29.17;35.09
35676;BME280;21790;42.668;23.298;2022-07-10T10:58:38;94428.69;;;29.17;34.33
35676;BME280;21790;42.668;23.298;2022-07-10T11:01:06;94428.50;;;29.15;34.32
35676;BME280;21790;42.668;23.298;2022-07-10T11:09:24;94423.06;;;29.00;34.98
35676;BME280;21790;42.668;23.298;2022-07-10T11:12:06;94420.38;;;29.02;35.03
35676;BME280;21790;42.668;23.298;2022-07-10T11:14:36;94408.72;;;29.07;34.57
35676;BME280;21790;42.668;23.298;2022-07-10T11:17:04;94415.31;;;29.10;34.90
35676;BME280;21790;42.668;23.298;2022-07-10T11:19:31;94411.75;;;29.19;35.52
35676;BME280;21790;42.668;23.298;2022-07-10T11:25:24;94417.78;;;29.60;34.50
35676;BME280;21790;42.668;23.298;2022-07-10T11:28:06;94410.75;;;29.61;34.06
35676;BME280;21790;42.668;23.298;2022-07-10T11:30:53;94406.06;;;29.19;34.78
35676;BME280;21790;42.668;23.298;2022-07-10T11:33:20;94411.34;;;29.23;34.68
35676;BME280;21790;42.668;23.298;2022-07-10T11:35:48;94414.50;;;29.27;34.53
35676;BME280;21790;42.668;23.298;2022-07-10T11:38:21;94412.63;;;29.39;34.35
35676;BME280;21790;42.668;23.298;2022-07-10T11:40:47;94409.56;;;29.27;34.57
35676;BME280;21790;42.668;23.298;2022-07-10T11:43:13;94410.66;;;29.32;34.60
35676;BME280;21790;42.668;23.298;2022-07-10T11:45:47;94408.28;;;29.38;34.89
35676;BME280;21790;42.668;23.298;2022-07-10T11:48:17;94419.22;;;29.41;34.86
35676;BME280;21790;42.668;23.298;2022-07-10T11:50:43;94418.84;;;29.28;35.03
35676;BME280;21790;42.668;23.298;2022-07-10T11:53:10;94418.75;;;29.35;34.29
35676;BME280;21790;42.668;23.298;2022-07-10T11:55:36;94416.16;;;29.30;35.16
35676;BME280;21790;42.668;23.298;2022-07-10T12:00:40;94411.19;;;29.30;34.41
35676;BME280;21790;42.668;23.298;2022-07-10T12:03:18;94412.31;;;29.35;34.74
35676;BME280;21790;42.668;23.298;2022-07-10T12:05:45;94402.59;;;29.11;34.97
35676;BME280;21790;42.668;23.298;2022-07-10T12:08:11;94414.34;;;28.98;34.74
35676;BME280;21790;42.668;23.298;2022-07-10T12:10:38;94411.47;;;29.25;34.09
35676;BME280;21790;42.668;23.298;2022-07-10T12:13:15;94414.91;;;29.50;34.01
35676;BME280;21790;42.668;23.298;2022-07-10T12:15:43;94417.28;;;29.44;34.13
35676;BME280;21790;42.668;23.298;2022-07-10T12:18:16;94416.28;;;29.59;33.85
35676;BME280;21790;42.668;23.298;2022-07-10T12:20:43;94418.53;;;29.50;33.90
35676;BME280;21790;42.668;23.298;2022-07-10T12:23:11;94406.41;;;29.60;33.49
35676;BME280;21790;42.668;23.298;2022-07-10T12:25:44;94410.81;;;29.34;34.15
35676;BME280;21790;42.668;23.298;2022-07-10T12:28:10;94413.69;;;29.43;33.77
35676;BME280;21790;42.668;23.298;2022-07-10T12:30:45;94412.38;;;29.54;33.43
35676;BME280;21790;42.668;23.298;2022-07-10T12:33:13;94408.78;;;29.53;33.53
35676;BME280;21790;42.668;23.298;2022-07-10T12:35:56;94417.19;;;29.61;32.77
35676;BME280;21790;42.668;23.298;2022-07-10T12:38:26;94408.19;;;29.55;32.48
35676;BME280;21790;42.668;23.298;2022-07-10T12:43:34;94422.69;;;29.49;33.28
35676;BME280;21790;42.668;23.298;2022-07-10T12:46:16;94409.25;;;29.60;33.31
35676;BME280;21790;42.668;23.298;2022-07-10T12:49:06;94408.59;;;29.51;33.21
35676;BME280;21790;42.668;23.298;2022-07-10T12:54:00;94396.22;;;29.30;32.31
35676;BME280;21790;42.668;23.298;2022-07-10T12:56:37;94410.28;;;29.55;32.81
35676;BME280;21790;42.668;23.298;2022-07-10T12:59:13;94405.88;;;29.34;31.29
35676;BME280;21790;42.668;23.298;2022-07-10T13:01:43;94412.50;;;29.20;30.59
35676;BME280;21790;42.668;23.298;2022-07-10T13:04:10;94414.19;;;29.23;31.09
35676;BME280;21790;42.668;23.298;2022-07-10T13:06:38;94407.16;;;29.24;31.34
35676;BME280;21790;42.668;23.298;2022-07-10T13:09:24;94413.03;;;29.35;30.93
35676;BME280;21790;42.668;23.298;2022-07-10T13:11:54;94408.56;;;29.32;32.23
35676;BME280;21790;42.668;23.298;2022-07-10T13:14:20;94403.66;;;29.16;30.82
35676;BME280;21790;42.668;23.298;2022-07-10T13:16:46;94419.03;;;29.03;29.60
35676;BME280;21790;42.668;23.298;2022-07-10T13:19:11;94404.78;;;29.03;30.52
35676;BME280;21790;42.668;23.298;2022-07-10T13:21:37;94403.75;;;29.08;29.73
35676;BME280;21790;42.668;23.298;2022-07-10T13:24:04;94404.25;;;29.14;29.88
35676;BME280;21790;42.668;23.298;2022-07-10T13:26:30;94410.59;;;29.22;30.60
35676;BME280;21790;42.668;23.298;2022-07-10T13:28:56;94405.91;;;29.17;29.26